sensor_id;sensor_type;location;lat;lon;timestamp;P1;durP1;ratioP1;P2;durP2;ratioP2
32032;SDS011;31720;52.638;9.216;2024-03-02T00:01:11;13.85;;;5.72;;
32032;SDS011;31720;52.638;9.216;2024-03-02T00:04:12;14.52;;;5.68;;
32032;SDS011;31720;52.638;9.216;2024-03-02T00:07:13;13.63;;;5.78;;
32032;SDS011;31720;52.638;9.216;2024-03-02T00:10:19;11.07;;;5.07;;
32032;SDS011;31720;52.638;9.216;2024-03-02T00:13:23;9.52;;;5.38;;
32032;SDS011;31720;52.638;9.216;2024-03-02T00:16:25;12.98;;;6.57;;
32032;SDS011;31720;52.638;9.216;2024-03-02T00:19:31;16.10;;;6.38;;
32032;SDS011;31720;52.638;9.216;2024-03-02T00:22:32;12.48;;;6.10;;
32032;SDS011;31720;52.638;9.216;2024-03-02T00:25:42;15.68;;;7.18;;
32032;SDS011;31720;52.638;9.216;2024-03-02T00:28:44;11.57;;;6.03;;
32032;SDS011;31720;52.638;9.216;2024-03-02T00:31:46;14.30;;;6.13;;
32032;SDS011;31720;52.638;9.216;2024-03-02T00:34:48;16.63;;;8.27;;
32032;SDS011;31720;52.638;9.216;2024-03-02T00:37:49;12.57;;;6.15;;
32032;SDS011;31720;52.638;9.216;2024-03-02T00:40:52;15.95;;;7.85;;
32032;SDS011;31720;52.638;9.216;2024-03-02T00:43:57;11.35;;;6.10;;
32032;SDS011;31720;52.638;9.216;2024-03-02T00:46:58;14.05;;;7.40;;
32032;SDS011;31720;52.638;9.216;2024-03-02T00:50:00;14.68;;;7.10;;
32032;SDS011;31720;52.638;9.216;2024-03-02T00:53:03;20.42;;;7.75;;
32032;SDS011;31720;52.638;9.216;2024-03-02T00:56:06;18.08;;;7.10;;
32032;SDS011;31720;52.638;9.216;2024-03-02T00:59:10;15.32;;;7.53;;
32032;SDS011;31720;52.638;9.216;2024-03-02T01:02:12;15.82;;;7.45;;
32032;SDS011;31720;52.638;9.216;2024-03-02T01:05:13;14.75;;;6.85;;
32032;SDS011;31720;52.638;9.216;2024-03-02T01:08:14;16.20;;;7.13;;
32032;SDS011;31720;52.638;9.216;2024-03-02T01:11:18;13.73;;;7.10;;
32032;SDS011;31720;52.638;9.216;2024-03-02T01:14:21;17.60;;;7.75;;
32032;SDS011;31720;52.638;9.216;2024-03-02T01:17:23;14.82;;;6.95;;
32032;SDS011;31720;52.638;9.216;2024-03-02T01:20:24;15.85;;;6.53;;
32032;SDS011;31720;52.638;9.216;2024-03-02T01:23:25;13.65;;;6.95;;
32032;SDS011;31720;52.638;9.216;2024-03-02T01:26:28;16.58;;;7.70;;
32032;SDS011;31720;52.638;9.216;2024-03-02T01:29:30;13.30;;;6.63;;
32032;SDS011;31720;52.638;9.216;2024-03-02T01:32:32;21.13;;;8.10;;
32032;SDS011;31720;52.638;9.216;2024-03-02T01:35:33;16.00;;;7.03;;
32032;SDS011;31720;52.638;9.216;2024-03-02T01:38:35;14.98;;;6.60;;
32032;SDS011;31720;52.638;9.216;2024-03-02T01:41:38;14.73;;;6.90;;
32032;SDS011;31720;52.638;9.216;2024-03-02T01:44:39;10.20;;;5.68;;
32032;SDS011;31720;52.638;9.216;2024-03-02T01:47:41;12.32;;;5.95;;
32032;SDS011;31720;52.638;9.216;2024-03-02T01:50:42;15.55;;;6.72;;
32032;SDS011;31720;52.638;9.216;2024-03-02T01:53:44;16.23;;;6.47;;
32032;SDS011;31720;52.638;9.216;2024-03-02T01:56:46;13.85;;;6.53;;
32032;SDS011;31720;52.638;9.216;2024-03-02T01:59:48;16.58;;;7.35;;
32032;SDS011;31720;52.638;9.216;2024-03-02T02:02:50;13.82;;;6.15;;
32032;SDS011;31720;52.638;9.216;2024-03-02T02:05:52;14.52;;;6.90;;
32032;SDS011;31720;52.638;9.216;2024-03-02T02:08:54;13.45;;;6.53;;
32032;SDS011;31720;52.638;9.216;2024-03-02T02:11:57;16.00;;;7.60;;
32032;SDS011;31720;52.638;9.216;2024-03-02T02:14:58;13.52;;;6.50;;
32032;SDS011;31720;52.638;9.216;2024-03-02T02:17:59;12.43;;;6.18;;
32032;SDS011;31720;52.638;9.216;2024-03-02T02:21:01;16.10;;;6.40;;
32032;SDS011;31720;52.638;9.216;2024-03-02T02:24:05;12.07;;;5.50;;
32032;SDS011;31720;52.638;9.216;2024-03-02T02:27:06;13.93;;;6.53;;
32032;SDS011;31720;52.638;9.216;2024-03-02T02:30:08;12.10;;;5.85;;
32032;SDS011;31720;52.638;9.216;2024-03-02T02:33:10;12.55;;;6.43;;
32032;SDS011;31720;52.638;9.216;2024-03-02T02:36:11;14.10;;;6.15;;
32032;SDS011;31720;52.638;9.216;2024-03-02T02:39:15;12.95;;;5.78;;
32032;SDS011;31720;52.638;9.216;2024-03-02T02:42:19;12.50;;;6.72;;
32032;SDS011;31720;52.638;9.216;2024-03-02T02:45:20;11.32;;;6.03;;
32032;SDS011;31720;52.638;9.216;2024-03-02T02:48:22;14.02;;;6.43;;
32032;SDS011;31720;52.638;9.216;2024-03-02T02:51:23;8.90;;;5.10;;
32032;SDS011;31720;52.638;9.216;2024-03-02T02:54:26;10.80;;;5.80;;
32032;SDS011;31720;52.638;9.216;2024-03-02T02:57:28;11.43;;;5.63;;
32032;SDS011;31720;52.638;9.216;2024-03-02T03:00:31;12.25;;;6.10;;
32032;SDS011;31720;52.638;9.216;2024-03-02T03:03:32;10.60;;;4.80;;
32032;SDS011;31720;52.638;9.216;2024-03-02T03:06:34;12.45;;;5.93;;
32032;SDS011;31720;52.638;9.216;2024-03-02T03:09:38;11.60;;;5.35;;
32032;SDS011;31720;52.638;9.216;2024-03-02T03:12:39;16.15;;;6.40;;
32032;SDS011;31720;52.638;9.216;2024-03-02T03:15:42;13.48;;;5.88;;
32032;SDS011;31720;52.638;9.216;2024-03-02T03:18:44;11.32;;;5.82;;
32032;SDS011;31720;52.638;9.216;2024-03-02T03:21:45;9.35;;;4.53;;
32032;SDS011;31720;52.638;9.216;2024-03-02T03:24:48;10.82;;;5.30;;
32032;SDS011;31720;52.638;9.216;2024-03-02T03:27:49;11.27;;;5.50;;
32032;SDS011;31720;52.638;9.216;2024-03-02T03:30:52;10.43;;;5.30;;
32032;SDS011;31720;52.638;9.216;2024-03-02T03:33:53;10.57;;;5.30;;
32032;SDS011;31720;52.638;9.216;2024-03-02T03:36:55;12.98;;;5.45;;
32032;SDS011;31720;52.638;9.216;2024-03-02T03:39:57;11.82;;;5.72;;
32032;SDS011;31720;52.638;9.216;2024-03-02T03:42:59;17.48;;;5.85;;
32032;SDS011;31720;52.638;9.216;2024-03-02T03:46:00;11.18;;;5.18;;
32032;SDS011;31720;52.638;9.216;2024-03-02T03:49:02;11.55;;;5.05;;
32032;SDS011;31720;52.638;9.216;2024-03-02T03:52:04;10.52;;;5.68;;
32032;SDS011;31720;52.638;9.216;2024-03-02T03:55:07;9.57;;;5.15;;
32032;SDS011;31720;52.638;9.216;2024-03-02T03:58:09;13.43;;;5.15;;
32032;SDS011;31720;52.638;9.216;2024-03-02T04:01:10;12.23;;;5.70;;
32032;SDS011;31720;52.638;9.216;2024-03-02T04:04:11;10.88;;;5.28;;
32032;SDS011;31720;52.638;9.216;2024-03-02T04:07:13;11.65;;;6.22;;
32032;SDS011;31720;52.638;9.216;2024-03-02T04:10:15;14.48;;;5.68;;
32032;SDS011;31720;52.638;9.216;2024-03-02T04:13:17;14.52;;;6.10;;
32032;SDS011;31720;52.638;9.216;2024-03-02T04:16:18;15.75;;;6.07;;
32032;SDS011;31720;52.638;9.216;2024-03-02T04:19:20;11.27;;;5.68;;
32032;SDS011;31720;52.638;9.216;2024-03-02T04:22:21;15.40;;;6.20;;
32032;SDS011;31720;52.638;9.216;2024-03-02T04:25:24;17.15;;;5.93;;
32032;SDS011;31720;52.638;9.216;2024-03-02T04:28:25;13.45;;;6.20;;
32032;SDS011;31720;52.638;9.216;2024-03-02T04:31:26;15.73;;;6.35;;
32032;SDS011;31720;52.638;9.216;2024-03-02T04:34:28;13.82;;;6.20;;
32032;SDS011;31720;52.638;9.216;2024-03-02T04:37:29;13.02;;;6.00;;
32032;SDS011;31720;52.638;9.216;2024-03-02T04:40:32;13.95;;;6.72;;
32032;SDS011;31720;52.638;9.216;2024-03-02T04:43:33;13.20;;;6.43;;
32032;SDS011;31720;52.638;9.216;2024-03-02T04:46:35;16.90;;;7.40;;
32032;SDS011;31720;52.638;9.216;2024-03-02T04:49:36;15.45;;;7.07;;
32032;SDS011;31720;52.638;9.216;2024-03-02T04:52:38;14.85;;;6.90;;
32032;SDS011;31720;52.638;9.216;2024-03-02T04:55:40;17.45;;;7.63;;
32032;SDS011;31720;52.638;9.216;2024-03-02T04:59:19;13.70;;;7.35;;
32032;SDS011;31720;52.638;9.216;2024-03-02T05:02:21;14.60;;;7.35;;
32032;SDS011;31720;52.638;9.216;2024-03-02T05:05:22;13.63;;;7.07;;
32032;SDS011;31720;52.638;9.216;2024-03-02T05:08:23;19.27;;;8.13;;
32032;SDS011;31720;52.638;9.216;2024-03-02T05:11:26;17.30;;;7.75;;
32032;SDS011;31720;52.638;9.216;2024-03-02T05:14:48;22.95;;;9.07;;
32032;SDS011;31720;52.638;9.216;2024-03-02T05:17:50;20.75;;;8.43;;
32032;SDS011;31720;52.638;9.216;2024-03-02T05:20:51;15.13;;;7.05;;
32032;SDS011;31720;52.638;9.216;2024-03-02T05:23:52;17.05;;;6.93;;
32032;SDS011;31720;52.638;9.216;2024-03-02T05:26:55;14.75;;;6.75;;
32032;SDS011;31720;52.638;9.216;2024-03-02T05:29:56;13.27;;;6.82;;
32032;SDS011;31720;52.638;9.216;2024-03-02T05:32:58;13.38;;;6.35;;
32032;SDS011;31720;52.638;9.216;2024-03-02T05:35:59;15.85;;;6.63;;
32032;SDS011;31720;52.638;9.216;2024-03-02T05:39:02;21.13;;;8.38;;
32032;SDS011;31720;52.638;9.216;2024-03-02T05:42:06;17.27;;;7.68;;
32032;SDS011;31720;52.638;9.216;2024-03-02T05:45:08;15.07;;;7.35;;
32032;SDS011;31720;52.638;9.216;2024-03-02T05:48:10;19.92;;;8.15;;
32032;SDS011;31720;52.638;9.216;2024-03-02T05:51:11;20.00;;;8.38;;
32032;SDS011;31720;52.638;9.216;2024-03-02T05:54:13;15.15;;;6.80;;
32032;SDS011;31720;52.638;9.216;2024-03-02T05:57:16;14.70;;;7.25;;
32032;SDS011;31720;52.638;9.216;2024-03-02T06:00:31;14.77;;;6.65;;
32032;SDS011;31720;52.638;9.216;2024-03-02T06:03:33;14.75;;;6.85;;
32032;SDS011;31720;52.638;9.216;2024-03-02T06:06:34;16.52;;;7.22;;
32032;SDS011;31720;52.638;9.216;2024-03-02T06:09:36;16.45;;;6.90;;
32032;SDS011;31720;52.638;9.216;2024-03-02T06:12:39;17.15;;;6.88;;
32032;SDS011;31720;52.638;9.216;2024-03-02T06:15:40;17.15;;;7.97;;
32032;SDS011;31720;52.638;9.216;2024-03-02T06:18:41;16.52;;;7.97;;
32032;SDS011;31720;52.638;9.216;2024-03-02T06:21:43;15.30;;;7.15;;
32032;SDS011;31720;52.638;9.216;2024-03-02T06:24:44;17.25;;;7.88;;
32032;SDS011;31720;52.638;9.216;2024-03-02T06:27:47;17.45;;;7.45;;
32032;SDS011;31720;52.638;9.216;2024-03-02T06:30:48;15.80;;;7.18;;
32032;SDS011;31720;52.638;9.216;2024-03-02T06:33:49;14.57;;;6.90;;
32032;SDS011;31720;52.638;9.216;2024-03-02T06:36:51;15.35;;;6.97;;
32032;SDS011;31720;52.638;9.216;2024-03-02T06:39:52;13.27;;;6.65;;
32032;SDS011;31720;52.638;9.216;2024-03-02T06:42:55;17.35;;;7.65;;
32032;SDS011;31720;52.638;9.216;2024-03-02T06:45:56;20.02;;;8.75;;
32032;SDS011;31720;52.638;9.216;2024-03-02T06:48:57;21.75;;;7.93;;
32032;SDS011;31720;52.638;9.216;2024-03-02T06:51:59;22.05;;;8.48;;
32032;SDS011;31720;52.638;9.216;2024-03-02T06:55:00;17.88;;;7.45;;
32032;SDS011;31720;52.638;9.216;2024-03-02T06:58:03;21.17;;;8.70;;
32032;SDS011;31720;52.638;9.216;2024-03-02T07:01:04;20.48;;;8.43;;
32032;SDS011;31720;52.638;9.216;2024-03-02T07:04:06;21.33;;;9.45;;
32032;SDS011;31720;52.638;9.216;2024-03-02T07:07:07;21.23;;;8.85;;
32032;SDS011;31720;52.638;9.216;2024-03-02T07:10:08;23.25;;;8.40;;
32032;SDS011;31720;52.638;9.216;2024-03-02T07:13:11;23.42;;;10.07;;
32032;SDS011;31720;52.638;9.216;2024-03-02T07:16:13;17.92;;;7.85;;
32032;SDS011;31720;52.638;9.216;2024-03-02T07:19:27;25.20;;;8.90;;
32032;SDS011;31720;52.638;9.216;2024-03-02T07:22:29;28.98;;;9.43;;
32032;SDS011;31720;52.638;9.216;2024-03-02T07:25:30;24.33;;;8.65;;
32032;SDS011;31720;52.638;9.216;2024-03-02T07:28:33;20.65;;;9.13;;
32032;SDS011;31720;52.638;9.216;2024-03-02T07:31:35;19.60;;;9.32;;
32032;SDS011;31720;52.638;9.216;2024-03-02T07:34:36;22.88;;;9.73;;
32032;SDS011;31720;52.638;9.216;2024-03-02T07:37:38;19.13;;;8.13;;
32032;SDS011;31720;52.638;9.216;2024-03-02T07:40:39;22.08;;;9.60;;
32032;SDS011;31720;52.638;9.216;2024-03-02T07:43:42;21.98;;;9.02;;
32032;SDS011;31720;52.638;9.216;2024-03-02T07:46:43;22.10;;;9.23;;
32032;SDS011;31720;52.638;9.216;2024-03-02T07:49:46;24.27;;;8.52;;
32032;SDS011;31720;52.638;9.216;2024-03-02T07:52:47;24.90;;;9.52;;
32032;SDS011;31720;52.638;9.216;2024-03-02T07:55:50;23.92;;;8.27;;
32032;SDS011;31720;52.638;9.216;2024-03-02T07:58:52;22.25;;;9.73;;
32032;SDS011;31720;52.638;9.216;2024-03-02T08:01:54;23.30;;;9.90;;
32032;SDS011;31720;52.638;9.216;2024-03-02T08:04:56;21.30;;;8.57;;
32032;SDS011;31720;52.638;9.216;2024-03-02T08:07:57;21.00;;;8.98;;
32032;SDS011;31720;52.638;9.216;2024-03-02T08:10:59;21.20;;;9.23;;
32032;SDS011;31720;52.638;9.216;2024-03-02T08:14:01;23.58;;;9.30;;
32032;SDS011;31720;52.638;9.216;2024-03-02T08:17:03;20.30;;;9.05;;
32032;SDS011;31720;52.638;9.216;2024-03-02T08:20:09;20.73;;;9.05;;
32032;SDS011;31720;52.638;9.216;2024-03-02T08:23:12;19.27;;;8.45;;
32032;SDS011;31720;52.638;9.216;2024-03-02T08:26:13;21.08;;;8.48;;
32032;SDS011;31720;52.638;9.216;2024-03-02T08:29:16;27.73;;;9.07;;
32032;SDS011;31720;52.638;9.216;2024-03-02T08:32:17;24.65;;;7.97;;
32032;SDS011;31720;52.638;9.216;2024-03-02T08:35:19;17.02;;;7.95;;
32032;SDS011;31720;52.638;9.216;2024-03-02T08:38:22;18.23;;;7.40;;
32032;SDS011;31720;52.638;9.216;2024-03-02T08:41:23;17.45;;;7.40;;
32032;SDS011;31720;52.638;9.216;2024-03-02T08:44:26;19.05;;;7.00;;
32032;SDS011;31720;52.638;9.216;2024-03-02T08:47:28;16.30;;;7.30;;
32032;SDS011;31720;52.638;9.216;2024-03-02T08:50:29;16.15;;;7.25;;
32032;SDS011;31720;52.638;9.216;2024-03-02T08:53:30;17.33;;;8.10;;
32032;SDS011;31720;52.638;9.216;2024-03-02T08:56:32;18.27;;;7.40;;
32032;SDS011;31720;52.638;9.216;2024-03-02T08:59:34;17.35;;;7.45;;
32032;SDS011;31720;52.638;9.216;2024-03-02T09:02:36;18.85;;;7.57;;
32032;SDS011;31720;52.638;9.216;2024-03-02T09:05:37;20.42;;;8.32;;
32032;SDS011;31720;52.638;9.216;2024-03-02T09:08:39;18.63;;;7.55;;
32032;SDS011;31720;52.638;9.216;2024-03-02T09:11:40;14.57;;;6.65;;
32032;SDS011;31720;52.638;9.216;2024-03-02T09:14:43;12.10;;;5.97;;
32032;SDS011;31720;52.638;9.216;2024-03-02T09:17:44;14.15;;;7.05;;
32032;SDS011;31720;52.638;9.216;2024-03-02T09:20:45;17.40;;;7.55;;
32032;SDS011;31720;52.638;9.216;2024-03-02T09:23:47;18.95;;;7.88;;
32032;SDS011;31720;52.638;9.216;2024-03-02T09:26:48;16.48;;;7.32;;
32032;SDS011;31720;52.638;9.216;2024-03-02T09:29:51;17.83;;;6.85;;
32032;SDS011;31720;52.638;9.216;2024-03-02T09:32:52;16.77;;;7.18;;
32032;SDS011;31720;52.638;9.216;2024-03-02T09:35:53;14.98;;;7.95;;
32032;SDS011;31720;52.638;9.216;2024-03-02T09:38:55;18.05;;;7.85;;
32032;SDS011;31720;52.638;9.216;2024-03-02T09:41:56;18.45;;;7.03;;
32032;SDS011;31720;52.638;9.216;2024-03-02T09:45:00;14.57;;;6.75;;
32032;SDS011;31720;52.638;9.216;2024-03-02T09:48:03;14.65;;;6.38;;
32032;SDS011;31720;52.638;9.216;2024-03-02T09:51:04;11.82;;;5.80;;
32032;SDS011;31720;52.638;9.216;2024-03-02T09:54:06;17.17;;;5.95;;
32032;SDS011;31720;52.638;9.216;2024-03-02T09:57:08;20.05;;;6.45;;
32032;SDS011;31720;52.638;9.216;2024-03-02T10:00:12;13.88;;;6.35;;
32032;SDS011;31720;52.638;9.216;2024-03-02T10:03:14;14.18;;;5.85;;
32032;SDS011;31720;52.638;9.216;2024-03-02T10:06:20;13.05;;;6.05;;
32032;SDS011;31720;52.638;9.216;2024-03-02T10:09:26;14.25;;;5.82;;
32032;SDS011;31720;52.638;9.216;2024-03-02T10:12:28;12.15;;;5.05;;
32032;SDS011;31720;52.638;9.216;2024-03-02T10:15:31;11.10;;;4.97;;
32032;SDS011;31720;52.638;9.216;2024-03-02T10:18:32;13.50;;;5.25;;
32032;SDS011;31720;52.638;9.216;2024-03-02T10:21:33;11.18;;;4.40;;
32032;SDS011;31720;52.638;9.216;2024-03-02T10:24:35;9.40;;;3.75;;
32032;SDS011;31720;52.638;9.216;2024-03-02T10:27:38;11.65;;;4.55;;
32032;SDS011;31720;52.638;9.216;2024-03-02T10:30:42;9.75;;;4.20;;
32032;SDS011;31720;52.638;9.216;2024-03-02T10:33:43;8.27;;;4.60;;
32032;SDS011;31720;52.638;9.216;2024-03-02T10:36:45;9.27;;;4.53;;
32032;SDS011;31720;52.638;9.216;2024-03-02T10:39:46;10.13;;;4.68;;
32032;SDS011;31720;52.638;9.216;2024-03-02T10:42:48;10.45;;;4.63;;
32032;SDS011;31720;52.638;9.216;2024-03-02T10:45:52;10.48;;;4.28;;
32032;SDS011;31720;52.638;9.216;2024-03-02T10:48:55;9.27;;;4.10;;
32032;SDS011;31720;52.638;9.216;2024-03-02T10:51:58;9.23;;;4.55;;
32032;SDS011;31720;52.638;9.216;2024-03-02T10:55:00;11.15;;;5.35;;
32032;SDS011;31720;52.638;9.216;2024-03-02T10:58:05;10.15;;;5.30;;
32032;SDS011;31720;52.638;9.216;2024-03-02T11:01:09;11.93;;;5.20;;
32032;SDS011;31720;52.638;9.216;2024-03-02T11:04:13;8.73;;;4.75;;
32032;SDS011;31720;52.638;9.216;2024-03-02T11:07:17;10.30;;;4.60;;
32032;SDS011;31720;52.638;9.216;2024-03-02T11:10:22;15.52;;;4.65;;
32032;SDS011;31720;52.638;9.216;2024-03-02T11:13:24;10.35;;;4.85;;
32032;SDS011;31720;52.638;9.216;2024-03-02T11:16:34;11.10;;;4.60;;
32032;SDS011;31720;52.638;9.216;2024-03-02T11:19:36;10.63;;;4.90;;
32032;SDS011;31720;52.638;9.216;2024-03-02T11:22:39;9.98;;;4.80;;
32032;SDS011;31720;52.638;9.216;2024-03-02T11:25:41;9.50;;;4.75;;
32032;SDS011;31720;52.638;9.216;2024-03-02T11:28:42;10.48;;;4.40;;
32032;SDS011;31720;52.638;9.216;2024-03-02T11:32:00;11.10;;;4.75;;
32032;SDS011;31720;52.638;9.216;2024-03-02T11:35:02;12.77;;;4.40;;
32032;SDS011;31720;52.638;9.216;2024-03-02T11:38:03;8.63;;;3.80;;
32032;SDS011;31720;52.638;9.216;2024-03-02T11:41:06;8.82;;;4.18;;
32032;SDS011;31720;52.638;9.216;2024-03-02T11:44:09;7.85;;;4.28;;
32032;SDS011;31720;52.638;9.216;2024-03-02T11:47:14;9.45;;;4.00;;
32032;SDS011;31720;52.638;9.216;2024-03-02T11:50:17;8.50;;;3.80;;
32032;SDS011;31720;52.638;9.216;2024-03-02T11:53:30;9.10;;;5.03;;
32032;SDS011;31720;52.638;9.216;2024-03-02T11:56:33;10.13;;;4.45;;
32032;SDS011;31720;52.638;9.216;2024-03-02T11:59:34;8.68;;;4.53;;
32032;SDS011;31720;52.638;9.216;2024-03-02T12:02:37;8.38;;;4.10;;
32032;SDS011;31720;52.638;9.216;2024-03-02T12:05:42;8.70;;;4.25;;
32032;SDS011;31720;52.638;9.216;2024-03-02T12:08:43;8.68;;;3.67;;
32032;SDS011;31720;52.638;9.216;2024-03-02T12:11:45;8.88;;;3.92;;
32032;SDS011;31720;52.638;9.216;2024-03-02T12:14:50;8.57;;;3.67;;
32032;SDS011;31720;52.638;9.216;2024-03-02T12:17:54;7.18;;;3.60;;
32032;SDS011;31720;52.638;9.216;2024-03-02T12:20:56;6.90;;;3.22;;
32032;SDS011;31720;52.638;9.216;2024-03-02T12:23:58;5.85;;;3.50;;
32032;SDS011;31720;52.638;9.216;2024-03-02T12:26:59;6.00;;;3.38;;
32032;SDS011;31720;52.638;9.216;2024-03-02T12:30:01;7.45;;;3.50;;
32032;SDS011;31720;52.638;9.216;2024-03-02T12:33:06;7.38;;;3.40;;
32032;SDS011;31720;52.638;9.216;2024-03-02T12:36:09;5.95;;;3.50;;
32032;SDS011;31720;52.638;9.216;2024-03-02T12:39:12;6.97;;;3.13;;
32032;SDS011;31720;52.638;9.216;2024-03-02T12:42:13;5.05;;;2.95;;
32032;SDS011;31720;52.638;9.216;2024-03-02T12:45:15;5.45;;;2.60;;
32032;SDS011;31720;52.638;9.216;2024-03-02T12:48:24;5.13;;;3.25;;
32032;SDS011;31720;52.638;9.216;2024-03-02T12:51:26;7.72;;;2.58;;
32032;SDS011;31720;52.638;9.216;2024-03-02T12:54:28;7.82;;;2.88;;
32032;SDS011;31720;52.638;9.216;2024-03-02T12:57:29;8.35;;;2.63;;
32032;SDS011;31720;52.638;9.216;2024-03-02T13:00:31;8.48;;;2.83;;
32032;SDS011;31720;52.638;9.216;2024-03-02T13:03:37;5.18;;;2.53;;
32032;SDS011;31720;52.638;9.216;2024-03-02T13:06:39;4.97;;;2.58;;
32032;SDS011;31720;52.638;9.216;2024-03-02T13:09:40;4.70;;;2.47;;
32032;SDS011;31720;52.638;9.216;2024-03-02T13:12:42;4.63;;;2.45;;
32032;SDS011;31720;52.638;9.216;2024-03-02T13:15:43;4.28;;;2.22;;
32032;SDS011;31720;52.638;9.216;2024-03-02T13:18:46;4.97;;;2.40;;
32032;SDS011;31720;52.638;9.216;2024-03-02T13:21:48;5.15;;;2.40;;
32032;SDS011;31720;52.638;9.216;2024-03-02T13:24:50;3.72;;;2.17;;
32032;SDS011;31720;52.638;9.216;2024-03-02T13:27:54;3.08;;;1.88;;
32032;SDS011;31720;52.638;9.216;2024-03-02T13:30:55;4.28;;;2.00;;
32032;SDS011;31720;52.638;9.216;2024-03-02T13:33:58;3.70;;;2.13;;
32032;SDS011;31720;52.638;9.216;2024-03-02T13:37:00;3.17;;;2.05;;
32032;SDS011;31720;52.638;9.216;2024-03-02T13:40:02;3.72;;;2.45;;
32032;SDS011;31720;52.638;9.216;2024-03-02T13:43:05;2.72;;;1.92;;
32032;SDS011;31720;52.638;9.216;2024-03-02T13:46:06;4.55;;;1.83;;
32032;SDS011;31720;52.638;9.216;2024-03-02T13:49:09;3.05;;;2.03;;
32032;SDS011;31720;52.638;9.216;2024-03-02T13:52:10;4.53;;;2.47;;
32032;SDS011;31720;52.638;9.216;2024-03-02T13:55:13;5.63;;;2.65;;
32032;SDS011;31720;52.638;9.216;2024-03-02T13:58:15;3.88;;;2.47;;
32032;SDS011;31720;52.638;9.216;2024-03-02T14:01:17;5.03;;;2.30;;
32032;SDS011;31720;52.638;9.216;2024-03-02T14:04:19;4.10;;;2.55;;
32032;SDS011;31720;52.638;9.216;2024-03-02T14:07:21;7.05;;;3.03;;
32032;SDS011;31720;52.638;9.216;2024-03-02T14:10:22;5.82;;;3.03;;
32032;SDS011;31720;52.638;9.216;2024-03-02T14:13:24;3.30;;;2.05;;
32032;SDS011;31720;52.638;9.216;2024-03-02T14:16:26;5.22;;;2.72;;
32032;SDS011;31720;52.638;9.216;2024-03-02T14:19:28;6.05;;;2.38;;
32032;SDS011;31720;52.638;9.216;2024-03-02T14:22:30;3.83;;;2.00;;
32032;SDS011;31720;52.638;9.216;2024-03-02T14:25:31;4.65;;;2.47;;
32032;SDS011;31720;52.638;9.216;2024-03-02T14:28:33;5.95;;;2.72;;
32032;SDS011;31720;52.638;9.216;2024-03-02T14:31:35;5.55;;;2.78;;
32032;SDS011;31720;52.638;9.216;2024-03-02T14:34:37;10.35;;;4.22;;
32032;SDS011;31720;52.638;9.216;2024-03-02T14:37:39;5.43;;;3.05;;
32032;SDS011;31720;52.638;9.216;2024-03-02T14:40:40;10.35;;;3.60;;
32032;SDS011;31720;52.638;9.216;2024-03-02T14:43:42;8.20;;;3.20;;
32032;SDS011;31720;52.638;9.216;2024-03-02T14:46:46;9.82;;;4.00;;
32032;SDS011;31720;52.638;9.216;2024-03-02T14:49:49;9.82;;;2.97;;
32032;SDS011;31720;52.638;9.216;2024-03-02T14:52:50;5.32;;;2.90;;
32032;SDS011;31720;52.638;9.216;2024-03-02T14:55:51;7.30;;;3.35;;
32032;SDS011;31720;52.638;9.216;2024-03-02T14:58:53;7.13;;;2.75;;
32032;SDS011;31720;52.638;9.216;2024-03-02T15:01:54;7.82;;;3.45;;
32032;SDS011;31720;52.638;9.216;2024-03-02T15:04:57;7.43;;;3.95;;
32032;SDS011;31720;52.638;9.216;2024-03-02T15:07:58;7.47;;;3.33;;
32032;SDS011;31720;52.638;9.216;2024-03-02T15:11:02;5.15;;;2.75;;
32032;SDS011;31720;52.638;9.216;2024-03-02T15:14:03;6.45;;;3.00;;
32032;SDS011;31720;52.638;9.216;2024-03-02T15:17:05;6.40;;;3.40;;
32032;SDS011;31720;52.638;9.216;2024-03-02T15:20:08;6.35;;;3.20;;
32032;SDS011;31720;52.638;9.216;2024-03-02T15:23:10;6.45;;;3.28;;
32032;SDS011;31720;52.638;9.216;2024-03-02T15:26:11;12.38;;;4.10;;
32032;SDS011;31720;52.638;9.216;2024-03-02T15:29:13;5.97;;;2.97;;
32032;SDS011;31720;52.638;9.216;2024-03-02T15:32:14;6.10;;;3.08;;
32032;SDS011;31720;52.638;9.216;2024-03-02T15:35:17;6.18;;;2.80;;
32032;SDS011;31720;52.638;9.216;2024-03-02T15:38:18;7.25;;;3.15;;
32032;SDS011;31720;52.638;9.216;2024-03-02T15:41:19;6.28;;;2.65;;
32032;SDS011;31720;52.638;9.216;2024-03-02T15:44:21;8.10;;;2.88;;
32032;SDS011;31720;52.638;9.216;2024-03-02T15:47:23;6.55;;;2.60;;
32032;SDS011;31720;52.638;9.216;2024-03-02T15:50:26;8.45;;;2.83;;
32032;SDS011;31720;52.638;9.216;2024-03-02T15:53:27;6.28;;;2.50;;
32032;SDS011;31720;52.638;9.216;2024-03-02T15:56:29;6.38;;;3.00;;
32032;SDS011;31720;52.638;9.216;2024-03-02T15:59:30;9.25;;;3.75;;
32032;SDS011;31720;52.638;9.216;2024-03-02T16:02:31;7.30;;;3.13;;
32032;SDS011;31720;52.638;9.216;2024-03-02T16:05:34;5.20;;;2.70;;
32032;SDS011;31720;52.638;9.216;2024-03-02T16:08:35;6.90;;;3.10;;
32032;SDS011;31720;52.638;9.216;2024-03-02T16:11:37;5.28;;;3.08;;
32032;SDS011;31720;52.638;9.216;2024-03-02T16:14:38;8.60;;;3.40;;
32032;SDS011;31720;52.638;9.216;2024-03-02T16:17:40;4.53;;;2.38;;
32032;SDS011;31720;52.638;9.216;2024-03-02T16:20:43;6.00;;;2.67;;
32032;SDS011;31720;52.638;9.216;2024-03-02T16:23:44;7.80;;;2.88;;
32032;SDS011;31720;52.638;9.216;2024-03-02T16:26:46;7.57;;;2.40;;
32032;SDS011;31720;52.638;9.216;2024-03-02T16:29:47;4.90;;;2.20;;
32032;SDS011;31720;52.638;9.216;2024-03-02T16:32:49;6.57;;;2.75;;
32032;SDS011;31720;52.638;9.216;2024-03-02T16:35:51;7.78;;;2.25;;
32032;SDS011;31720;52.638;9.216;2024-03-02T16:38:53;3.53;;;2.13;;
32032;SDS011;31720;52.638;9.216;2024-03-02T16:41:54;5.65;;;2.50;;
32032;SDS011;31720;52.638;9.216;2024-03-02T16:44:56;5.40;;;2.20;;
32032;SDS011;31720;52.638;9.216;2024-03-02T16:47:57;5.13;;;2.80;;
32032;SDS011;31720;52.638;9.216;2024-03-02T16:51:00;7.45;;;2.63;;
32032;SDS011;31720;52.638;9.216;2024-03-02T16:54:01;7.50;;;2.10;;
32032;SDS011;31720;52.638;9.216;2024-03-02T16:57:03;5.10;;;2.28;;
32032;SDS011;31720;52.638;9.216;2024-03-02T17:00:05;5.70;;;2.35;;
32032;SDS011;31720;52.638;9.216;2024-03-02T17:03:07;5.43;;;2.80;;
32032;SDS011;31720;52.638;9.216;2024-03-02T17:06:10;5.53;;;2.30;;
32032;SDS011;31720;52.638;9.216;2024-03-02T17:09:11;6.63;;;2.55;;
32032;SDS011;31720;52.638;9.216;2024-03-02T17:12:13;4.70;;;2.42;;
32032;SDS011;31720;52.638;9.216;2024-03-02T17:15:14;4.88;;;2.40;;
32032;SDS011;31720;52.638;9.216;2024-03-02T17:18:16;6.05;;;2.17;;
32032;SDS011;31720;52.638;9.216;2024-03-02T17:21:18;3.75;;;2.17;;
32032;SDS011;31720;52.638;9.216;2024-03-02T17:24:20;5.05;;;2.28;;
32032;SDS011;31720;52.638;9.216;2024-03-02T17:27:21;7.53;;;2.67;;
32032;SDS011;31720;52.638;9.216;2024-03-02T17:30:22;7.90;;;2.75;;
32032;SDS011;31720;52.638;9.216;2024-03-02T17:33:24;6.53;;;2.42;;
32032;SDS011;31720;52.638;9.216;2024-03-02T17:36:26;3.97;;;2.22;;
32032;SDS011;31720;52.638;9.216;2024-03-02T17:39:28;9.07;;;3.08;;
32032;SDS011;31720;52.638;9.216;2024-03-02T17:42:29;8.75;;;2.05;;
32032;SDS011;31720;52.638;9.216;2024-03-02T17:45:30;5.95;;;2.67;;
32032;SDS011;31720;52.638;9.216;2024-03-02T17:48:32;5.30;;;2.38;;
32032;SDS011;31720;52.638;9.216;2024-03-02T17:51:34;5.95;;;3.13;;
32032;SDS011;31720;52.638;9.216;2024-03-02T17:54:36;5.07;;;2.65;;
32032;SDS011;31720;52.638;9.216;2024-03-02T17:57:37;5.35;;;2.47;;
32032;SDS011;31720;52.638;9.216;2024-03-02T18:00:38;5.22;;;2.55;;
32032;SDS011;31720;52.638;9.216;2024-03-02T18:03:40;5.22;;;2.42;;
32032;SDS011;31720;52.638;9.216;2024-03-02T18:06:43;7.55;;;2.78;;
32032;SDS011;31720;52.638;9.216;2024-03-02T18:09:45;6.40;;;3.30;;